Time;durP1;ratioP1;P1;durP2;ratioP2;P2;SDS_P1;SDS_P2;PMS_P1;PMS_P2;Temp;Humidity;BMP_temperature;BMP_pressure;BME280_temperature;BME280_humidity;BME280_pressure;Samples;Min_cycle;Max_cycle;Signal;HPM_P1;HPM_P2
2023/01/02 00:01:07;;;;;;;9.37;7.30;;;;;;;2.96;100.00;96751.41;4952248;28;105606;-64
2023/01/02 00:03:34;;;;;;;9.37;7.40;;;;;;;2.89;100.00;96744.53;4951535;28;105677;-63
2023/01/02 00:06:03;;;;;;;9.20;7.70;;;;;;;2.91;100.00;96750.38;4955512;28;102366;-64
2023/01/02 00:08:30;;;;;;;9.03;6.80;;;;;;;2.86;100.00;96747.53;4951687;28;105489;-63
2023/01/02 00:10:58;;;;;;;10.10;7.63;;;;;;;2.97;100.00;96736.47;4952243;28;101867;-63
2023/01/02 00:13:25;;;;;;;8.43;6.90;;;;;;;2.86;100.00;96739.66;4952099;28;104761;-63
2023/01/02 00:15:52;;;;;;;9.13;7.50;;;;;;;2.90;100.00;96733.00;4951481;28;104362;-63
2023/01/02 00:18:19;;;;;;;10.63;7.20;;;;;;;2.71;100.00;96733.69;4950102;28;101983;-63
2023/01/02 00:20:46;;;;;;;9.20;7.43;;;;;;;2.70;100.00;96726.84;4951957;28;105401;-64
2023/01/02 00:23:13;;;;;;;9.53;7.40;;;;;;;2.74;100.00;96715.75;4951319;28;105221;-63
2023/01/02 00:25:41;;;;;;;9.53;7.33;;;;;;;2.74;100.00;96709.69;4952064;28;101834;-64
2023/01/02 00:28:09;;;;;;;8.97;7.27;;;;;;;2.85;100.00;96706.53;4954229;28;105160;-63
2023/01/02 00:30:38;;;;;;;9.77;7.10;;;;;;;2.93;100.00;96703.72;4951814;28;101896;-63
2023/01/02 00:33:05;;;;;;;9.00;6.80;;;;;;;2.81;100.00;96700.84;4951754;28;105398;-63
2023/01/02 00:35:32;;;;;;;10.50;7.10;;;;;;;2.95;100.00;96699.09;4951151;28;104412;-63
2023/01/02 00:38:00;;;;;;;10.40;7.00;;;;;;;2.92;100.00;96691.59;4951570;28;101917;-64
2023/01/02 00:40:27;;;;;;;9.50;7.40;;;;;;;2.84;100.00;96699.66;4952825;28;101742;-63
2023/01/02 00:42:54;;;;;;;8.60;6.97;;;;;;;2.91;100.00;96695.22;4950707;28;105278;-64
2023/01/02 00:45:22;;;;;;;10.57;6.70;;;;;;;2.94;100.00;96700.91;4951515;28;101851;-63
2023/01/02 00:47:49;;;;;;;10.07;6.53;;;;;;;2.89;100.00;96699.88;4951511;28;104791;-63
2023/01/02 00:50:16;;;;;;;8.33;6.77;;;;;;;3.02;100.00;96705.19;4954354;28;105015;-64
2023/01/02 00:52:43;;;;;;;9.50;6.70;;;;;;;2.97;100.00;96695.28;4951296;28;105729;-64
2023/01/02 00:55:10;;;;;;;7.57;6.43;;;;;;;3.02;100.00;96694.69;4950920;28;105843;-64
2023/01/02 00:57:39;;;;;;;9.47;6.93;;;;;;;2.86;100.00;96698.44;4951180;28;101886;-64
2023/01/02 01:00:08;;;;;;;9.20;6.50;;;;;;;2.92;100.00;96686.34;4951066;28;103816;-63
2023/01/02 01:02:36;;;;;;;8.40;7.03;;;;;;;2.89;100.00;96686.75;4950961;28;104633;-63
2023/01/02 01:05:04;;;;;;;8.17;6.17;;;;;;;2.86;100.00;96684.50;4951183;28;101957;-64
2023/01/02 01:07:31;;;;;;;9.70;6.73;;;;;;;2.92;100.00;96691.59;4951373;28;105188;-63
2023/01/02 01:09:58;;;;;;;8.73;6.67;;;;;;;2.76;100.00;96691.91;4950524;28;105015;-63
2023/01/02 01:12:25;;;;;;;7.93;6.40;;;;;;;2.88;100.00;96687.72;4954453;28;101934;-63
2023/01/02 01:14:53;;;;;;;9.43;6.80;;;;;;;2.94;100.00;96692.19;4950205;28;105745;-63
2023/01/02 01:17:20;;;;;;;10.20;6.80;;;;;;;2.70;100.00;96697.94;4952438;28;102197;-63
2023/01/02 01:19:48;;;;;;;8.27;7.00;;;;;;;2.84;100.00;96692.56;4950970;28;103904;-63
2023/01/02 01:22:15;;;;;;;7.67;6.20;;;;;;;2.82;100.00;96694.59;4950170;28;105751;-63
2023/01/02 01:24:42;;;;;;;7.93;6.40;;;;;;;2.91;100.00;96697.88;4951056;28;101844;-63
2023/01/02 01:27:09;;;;;;;9.00;6.70;;;;;;;2.85;100.00;96701.28;4950702;28;104939;-63
2023/01/02 01:29:36;;;;;;;9.57;6.90;;;;;;;2.57;100.00;96692.63;4949553;28;105543;-64
2023/01/02 01:32:04;;;;;;;8.57;6.50;;;;;;;2.48;100.00;96689.34;4951949;28;101962;-63
2023/01/02 01:34:31;;;;;;;8.63;6.47;;;;;;;2.41;100.00;96688.47;4953644;28;105448;-63
2023/01/02 01:37:00;;;;;;;8.57;6.73;;;;;;;2.42;100.00;96689.31;4950846;28;101935;-63
2023/01/02 01:39:27;;;;;;;9.13;6.50;;;;;;;2.38;100.00;96691.50;4950670;28;105254;-63
2023/01/02 01:41:54;;;;;;;10.47;7.63;;;;;;;2.29;100.00;96691.84;4950284;28;105613;-63
2023/01/02 01:44:42;;;;;;;9.40;7.10;;;;;;;2.39;100.00;96685.25;4950332;28;101948;-63
2023/01/02 01:47:18;;;;;;;9.00;6.60;;;;;;;2.37;100.00;96689.91;4950697;28;104989;-63
2023/01/02 01:49:46;;;;;;;8.33;6.60;;;;;;;2.28;100.00;96693.66;4950209;28;105062;-63
2023/01/02 01:52:18;;;;;;;8.93;6.70;;;;;;;2.10;100.00;96685.47;4950423;28;101934;-63
2023/01/02 01:54:51;;;;;;;10.10;7.07;;;;;;;2.24;100.00;96689.00;4953156;28;103763;-63
2023/01/02 01:57:27;;;;;;;9.10;6.73;;;;;;;2.34;100.00;96686.81;4949955;28;101831;-63
2023/01/02 01:59:55;;;;;;;8.60;6.53;;;;;;;2.42;100.00;96684.88;4950446;28;104851;-63
2023/01/02 02:02:23;;;;;;;9.03;6.83;;;;;;;2.33;100.00;96680.78;4949797;28;105355;-63
2023/01/02 02:04:50;;;;;;;8.03;6.50;;;;;;;2.47;100.00;96687.72;4950204;28;102108;-63
2023/01/02 02:07:19;;;;;;;8.77;6.73;;;;;;;2.49;100.00;96685.72;4950308;28;105486;-63
2023/01/02 02:09:52;;;;;;;7.90;6.70;;;;;;;2.41;100.00;96678.00;4949707;28;106169;-63
2023/01/02 02:12:19;;;;;;;8.20;6.50;;;;;;;2.39;100.00;96684.44;4950132;28;101830;-63
2023/01/02 02:14:46;;;;;;;9.37;6.07;;;;;;;2.36;100.00;96682.22;4950061;28;105340;-64
2023/01/02 02:17:23;;;;;;;6.80;5.80;;;;;;;2.42;100.00;96682.25;4952878;28;105714;-63
2023/01/02 02:20:19;;;;;;;8.37;6.50;;;;;;;2.44;100.00;96687.28;4950357;28;104864;-64
2023/01/02 02:23:11;;;;;;;7.53;6.10;;;;;;;2.42;100.00;96677.00;4949406;28;104112;-63
2023/01/02 02:25:59;;;;;;;8.93;6.90;;;;;;;2.31;100.00;96679.34;4950068;28;101966;-63
2023/01/02 02:28:56;;;;;;;7.40;5.80;;;;;;;2.20;100.00;96674.63;4957009;28;102612;-63
2023/01/02 02:31:29;;;;;;;7.63;5.87;;;;;;;2.13;100.00;96673.78;4913305;28;105914;-63
2023/01/02 02:34:01;;;;;;;7.77;6.17;;;;;;;2.24;100.00;96665.38;4953148;28;101905;-63
2023/01/02 02:36:36;;;;;;;7.40;6.43;;;;;;;2.23;100.00;96668.97;4952846;28;105505;-63
2023/01/02 02:39:16;;;;;;;8.03;6.30;;;;;;;2.13;100.00;96653.59;4952421;28;105082;-63
2023/01/02 02:41:55;;;;;;;8.60;6.17;;;;;;;2.18;100.00;96653.03;4973194;28;101695;-63
2023/01/02 02:44:33;;;;;;;7.50;6.00;;;;;;;2.05;100.00;96653.75;4952565;28;105982;-63
2023/01/02 02:47:06;;;;;;;7.67;6.00;;;;;;;2.10;100.00;96656.63;4952947;28;101925;-63
2023/01/02 02:49:46;;;;;;;7.83;5.90;;;;;;;2.15;100.00;96662.09;4952988;28;105416;-63
2023/01/02 02:52:18;;;;;;;8.67;6.13;;;;;;;2.08;100.00;96663.84;4952375;28;104823;-63
2023/01/02 02:54:51;;;;;;;7.00;5.97;;;;;;;2.19;100.00;96659.91;4953144;28;101821;-63
2023/01/02 02:57:20;;;;;;;6.23;5.53;;;;;;;2.07;100.00;96656.97;4952442;28;105246;-63
2023/01/02 02:59:47;;;;;;;8.00;6.13;;;;;;;1.99;100.00;96654.53;4952404;28;105301;-63
2023/01/02 03:02:18;;;;;;;6.67;5.73;;;;;;;2.01;100.00;96649.06;4952829;28;101914;-63
2023/01/02 03:04:48;;;;;;;8.23;6.30;;;;;;;2.05;100.00;96647.69;4955638;28;105460;-63
2023/01/02 03:07:24;;;;;;;7.90;6.30;;;;;;;1.91;100.00;96644.16;4952694;28;102222;-63
2023/01/02 03:10:07;;;;;;;7.60;5.93;;;;;;;1.86;100.00;96653.59;4952922;28;105651;-63
2023/01/02 03:12:43;;;;;;;7.33;5.67;;;;;;;1.97;100.00;96653.88;4952126;28;105329;-63
2023/01/02 03:15:20;;;;;;;7.17;5.60;;;;;;;1.97;100.00;96648.63;4952639;28;102176;-63
2023/01/02 03:18:00;;;;;;;8.73;6.33;;;;;;;1.92;100.00;96650.22;4970674;28;102368;-63
2023/01/02 03:20:33;;;;;;;8.10;6.20;;;;;;;1.86;100.00;96651.78;4952135;28;105387;-63
2023/01/02 03:23:07;;;;;;;6.77;5.53;;;;;;;2.00;100.00;96658.75;4952486;28;102099;-63
2023/01/02 03:25:36;;;;;;;7.37;5.97;;;;;;;1.85;100.00;96657.19;4952626;28;105306;-63
2023/01/02 03:28:06;;;;;;;8.07;6.30;;;;;;;1.99;100.00;96653.69;4972225;28;102775;-63
2023/01/02 03:30:35;;;;;;;7.93;6.50;;;;;;;1.90;100.00;96657.44;4952460;28;105621;-63
2023/01/02 03:33:07;;;;;;;7.17;5.60;;;;;;;1.90;100.00;96653.03;4951555;28;104972;-63
2023/01/02 03:35:37;;;;;;;7.70;5.87;;;;;;;1.79;100.00;96650.91;4952288;28;101905;-63
2023/01/02 03:38:08;;;;;;;8.53;6.57;;;;;;;1.96;100.00;96656.69;4952498;28;104825;-63
2023/01/02 03:40:42;;;;;;;7.03;5.90;;;;;;;1.91;100.00;96656.47;4969354;28;103205;-63
2023/01/02 03:43:15;;;;;;;9.70;6.73;;;;;;;1.83;100.00;96653.97;4952467;28;101832;-63
2023/01/02 03:45:47;;;;;;;6.63;5.93;;;;;;;1.79;100.00;96650.91;4952496;28;105772;-63
2023/01/02 03:48:23;;;;;;;7.00;6.30;;;;;;;1.88;100.00;96655.03;4969741;28;102602;-63
2023/01/02 03:50:54;;;;;;;7.80;6.10;;;;;;;1.84;100.00;96650.34;4955624;28;102142;-63
2023/01/02 03:53:22;;;;;;;9.43;6.70;;;;;;;1.79;100.00;96655.34;4971825;28;102570;-63
2023/01/02 03:55:58;;;;;;;8.53;6.40;;;;;;;1.70;100.00;96656.50;4955742;28;101971;-63
2023/01/02 03:58:32;;;;;;;8.40;6.23;;;;;;;1.79;100.00;96653.53;4955462;28;104953;-63
2023/01/02 04:01:06;;;;;;;7.63;6.37;;;;;;;1.91;100.00;96644.16;4954822;28;106180;-63
2023/01/02 04:03:39;;;;;;;7.73;6.60;;;;;;;1.85;100.00;96646.72;4955301;28;102066;-63
2023/01/02 04:06:12;;;;;;;9.30;6.70;;;;;;;1.88;100.00;96651.59;4955573;28;104796;-63
2023/01/02 04:08:45;;;;;;;7.13;6.17;;;;;;;2.01;100.00;96655.13;4972621;28;103283;-63
2023/01/02 04:11:16;;;;;;;9.50;7.33;;;;;;;1.98;100.00;96649.44;4958889;28;101947;-63
2023/01/02 04:13:47;;;;;;;9.20;7.03;;;;;;;1.89;100.00;96646.16;4954889;28;105591;-63
2023/01/02 04:16:21;;;;;;;9.00;6.67;;;;;;;1.78;100.00;96657.16;4955403;28;101754;-63
2023/01/02 04:18:54;;;;;;;8.53;6.97;;;;;;;1.87;100.00;96650.78;4973524;28;102368;-63
2023/01/02 04:21:25;;;;;;;7.37;6.20;;;;;;;1.79;100.00;96663.22;4954691;28;103737;-63
2023/01/02 04:23:57;;;;;;;8.43;6.03;;;;;;;1.69;100.00;96655.66;4955292;28;102142;-63
2023/01/02 04:26:30;;;;;;;7.47;6.67;;;;;;;1.62;100.00;96646.94;4955200;28;104940;-63
2023/01/02 04:28:57;;;;;;;8.33;6.83;;;;;;;1.78;100.00;96653.72;4953962;28;105286;-63
2023/01/02 04:31:32;;;;;;;8.87;6.67;;;;;;;1.66;100.00;96655.25;4972656;28;101800;-63
2023/01/02 04:34:02;;;;;;;9.97;6.87;;;;;;;1.73;100.00;96658.72;4975554;28;102418;-63
2023/01/02 04:36:29;;;;;;;7.80;6.37;;;;;;;1.75;100.00;96662.78;4955598;28;102175;-63
2023/01/02 04:38:56;;;;;;;8.80;7.40;;;;;;;1.84;100.00;96658.22;4955265;28;105216;-64
2023/01/02 04:41:25;;;;;;;8.13;6.90;;;;;;;1.94;100.00;96658.69;4971867;28;102537;-64
2023/01/02 04:43:53;;;;;;;9.03;6.67;;;;;;;2.09;100.00;96662.84;4955021;28;101849;-63
2023/01/02 04:46:21;;;;;;;8.60;6.57;;;;;;;2.15;100.00;96666.53;4955071;28;104262;-63
2023/01/02 04:48:48;;;;;;;9.50;7.10;;;;;;;2.18;100.00;96668.78;4954868;28;105313;-63
2023/01/02 04:51:17;;;;;;;8.47;6.60;;;;;;;2.09;100.00;96662.84;4954670;28;102182;-63
2023/01/02 04:53:47;;;;;;;8.30;6.93;;;;;;;1.94;100.00;96653.44;4955284;28;104824;-63
2023/01/02 04:56:14;;;;;;;8.37;6.77;;;;;;;1.92;100.00;96658.88;4975821;28;103146;-63
2023/01/02 04:58:43;;;;;;;8.43;6.80;;;;;;;1.92;100.00;96650.22;4954642;28;105451;-63
2023/01/02 05:01:11;;;;;;;8.47;6.90;;;;;;;1.75;100.00;96652.28;4971570;28;102982;-63
2023/01/02 05:03:40;;;;;;;9.10;7.10;;;;;;;1.64;100.00;96652.00;4953614;28;102008;-63
2023/01/02 05:06:07;;;;;;;7.93;6.50;;;;;;;1.48;100.00;96647.81;4954664;28;105038;-63
2023/01/02 05:08:37;;;;;;;6.70;5.83;;;;;;;1.55;100.00;96661.00;4953918;28;105387;-63
2023/01/02 05:11:08;;;;;;;8.60;6.23;;;;;;;1.58;100.00;96658.00;4954420;28;102034;-63
2023/01/02 05:13:36;;;;;;;7.17;6.07;;;;;;;1.63;100.00;96660.84;4954422;28;103841;-63
2023/01/02 05:16:03;;;;;;;9.07;6.40;;;;;;;1.59;100.00;96660.41;4953410;28;105784;-63
2023/01/02 05:18:31;;;;;;;6.70;5.60;;;;;;;1.59;100.00;96649.16;4957712;28;101873;-63
2023/01/02 05:21:03;;;;;;;8.60;6.10;;;;;;;1.62;100.00;96659.22;4953445;28;105488;-64
2023/01/02 05:23:48;;;;;;;6.73;5.90;;;;;;;1.54;100.00;96662.78;4971630;28;101814;-63
2023/01/02 05:26:18;;;;;;;7.77;5.90;;;;;;;1.52;100.00;96659.56;4971830;28;102626;-63
2023/01/02 05:28:46;;;;;;;7.10;6.30;;;;;;;1.51;100.00;96667.59;4953141;28;105754;-64
2023/01/02 05:31:14;;;;;;;6.80;6.03;;;;;;;1.62;100.00;96664.47;4954240;28;101960;-63
2023/01/02 05:33:42;;;;;;;7.97;6.33;;;;;;;1.67;100.00;96662.09;4953837;28;105217;-63
2023/01/02 05:36:10;;;;;;;9.30;6.73;;;;;;;1.68;100.00;96658.47;4953413;28;105408;-63
2023/01/02 05:38:38;;;;;;;8.03;6.47;;;;;;;1.69;100.00;96660.13;4971457;28;101837;-63
2023/01/02 05:41:07;;;;;;;7.80;6.60;;;;;;;1.71;100.00;96658.13;4974299;28;102904;-63
2023/01/02 05:43:37;;;;;;;9.40;7.50;;;;;;;1.69;100.00;96660.91;4953544;28;101880;-64
2023/01/02 05:46:09;;;;;;;8.83;7.33;;;;;;;1.80;100.00;96657.00;4954042;28;105401;-63
2023/01/02 05:48:37;;;;;;;10.37;7.83;;;;;;;2.08;100.00;96663.84;4936903;28;105528;-63
2023/01/02 05:51:06;;;;;;;10.33;7.27;;;;;;;2.10;100.00;96663.66;4953324;28;101961;-63
2023/01/02 05:53:33;;;;;;;11.13;7.53;;;;;;;2.15;100.00;96667.34;4953499;28;105662;-63
2023/01/02 05:56:05;;;;;;;9.97;7.40;;;;;;;2.10;100.00;96658.41;4953099;28;105548;-63
2023/01/02 05:58:33;;;;;;;8.00;6.37;;;;;;;2.13;100.00;96660.66;4953471;28;102285;-63
2023/01/02 06:01:07;;;;;;;9.87;7.67;;;;;;;2.18;100.00;96663.53;4953615;28;105389;-63
2023/01/02 06:03:36;;;;;;;9.53;7.50;;;;;;;1.99;100.00;96661.56;4955755;28;101810;-63
2023/01/02 06:06:05;;;;;;;11.17;7.77;;;;;;;1.82;100.00;96668.91;4953583;28;104948;-63
2023/01/02 06:08:33;;;;;;;10.37;7.53;;;;;;;1.81;100.00;96671.72;4952840;28;105650;-63
2023/01/02 06:11:00;;;;;;;8.57;6.83;;;;;;;1.79;100.00;96668.44;4953498;28;101979;-63
2023/01/02 06:13:29;;;;;;;9.27;7.07;;;;;;;1.77;100.00;96662.59;4953018;28;105322;-63
2023/01/02 06:15:56;;;;;;;7.30;6.37;;;;;;;1.73;100.00;96666.59;4952788;28;105641;-63
2023/01/02 06:18:26;;;;;;;8.97;7.00;;;;;;;1.80;100.00;96662.22;4953496;28;101944;-63
2023/01/02 06:20:59;;;;;;;8.17;7.10;;;;;;;1.77;100.00;96657.34;4953086;28;105751;-63
2023/01/02 06:23:26;;;;;;;8.33;6.93;;;;;;;1.75;100.00;96660.16;4955714;28;105982;-63
2023/01/02 06:25:54;;;;;;;9.37;7.00;;;;;;;1.73;100.00;96658.72;4953109;28;104902;-63
2023/01/02 06:28:22;;;;;;;9.07;6.67;;;;;;;1.71;100.00;96658.13;4952070;28;105939;-63
2023/01/02 06:30:49;;;;;;;9.83;7.40;;;;;;;1.74;100.00;96647.22;4970830;28;101962;-63
2023/01/02 06:33:17;;;;;;;8.40;7.27;;;;;;;1.69;100.00;96654.88;4952722;28;105602;-63
2023/01/02 06:35:47;;;;;;;8.53;6.57;;;;;;;1.57;100.00;96651.13;4952460;28;105815;-63
2023/01/02 06:38:14;;;;;;;8.80;6.40;;;;;;;1.51;100.00;96654.50;4953134;28;101783;-63
2023/01/02 06:40:52;;;;;;;7.60;5.77;;;;;;;1.33;100.00;96662.00;4952589;28;105150;-64
2023/01/02 06:43:20;;;;;;;8.57;5.93;;;;;;;1.29;100.00;96665.97;4952391;28;105823;-63
2023/01/02 06:45:48;;;;;;;8.57;6.53;;;;;;;1.27;100.00;96666.16;4956386;28;101933;-63
2023/01/02 06:48:16;;;;;;;10.50;6.23;;;;;;;1.39;100.00;96669.09;4952366;28;104027;-63
2023/01/02 06:50:43;;;;;;;8.03;6.47;;;;;;;1.38;100.00;96667.47;4952954;28;101978;-63
2023/01/02 06:53:13;;;;;;;7.73;6.60;;;;;;;1.48;100.00;96665.38;4970331;28;102297;-63
2023/01/02 06:55:50;;;;;;;8.93;6.70;;;;;;;1.41;100.00;96664.47;4952144;28;105387;-63
2023/01/02 06:58:18;;;;;;;9.87;6.53;;;;;;;1.37;100.00;96665.88;4952776;28;101812;-63
2023/01/02 07:00:45;;;;;;;9.13;6.83;;;;;;;1.22;100.00;96662.47;4952725;28;105133;-63
2023/01/02 07:03:13;;;;;;;8.27;6.33;;;;;;;1.21;100.00;96666.91;4951629;28;104390;-64
2023/01/02 07:05:41;;;;;;;9.13;7.13;;;;;;;1.29;100.00;96669.41;4952704;28;101875;-63
2023/01/02 07:08:09;;;;;;;9.30;7.33;;;;;;;1.31;100.00;96662.16;4955582;28;105426;-63
2023/01/02 07:10:38;;;;;;;8.07;7.07;;;;;;;1.38;100.00;96659.63;4952230;28;101859;-63
2023/01/02 07:13:06;;;;;;;10.40;7.70;;;;;;;1.41;100.00;96656.63;4970289;28;102895;-63
2023/01/02 07:15:33;;;;;;;9.37;7.20;;;;;;;1.47;100.00;96664.53;4951901;28;104346;-63
2023/01/02 07:18:01;;;;;;;9.63;7.13;;;;;;;1.47;100.00;96663.72;4952504;28;101930;-63
2023/01/02 07:20:28;;;;;;;9.80;7.90;;;;;;;1.56;100.00;96663.44;4952358;28;105449;-63
2023/01/02 07:22:56;;;;;;;11.33;7.73;;;;;;;1.66;100.00;96666.56;4951834;28;105859;-63
2023/01/02 07:25:23;;;;;;;9.43;7.60;;;;;;;1.61;100.00;96662.84;4952515;28;101821;-63
2023/01/02 07:27:53;;;;;;;11.53;9.10;;;;;;;1.68;100.00;96676.81;4953712;28;105180;-63
2023/01/02 07:30:20;;;;;;;12.43;8.90;;;;;;;1.70;100.00;96666.97;4976646;28;102937;-63
2023/01/02 07:32:47;;;;;;;11.53;8.70;;;;;;;1.79;100.00;96665.81;4955595;28;105282;-63
2023/01/02 07:35:15;;;;;;;13.50;8.57;;;;;;;1.72;100.00;96664.97;4954920;28;105543;-63
2023/01/02 07:37:43;;;;;;;9.73;7.67;;;;;;;1.72;100.00;96667.59;4955719;28;101927;-63
2023/01/02 07:40:12;;;;;;;10.97;7.20;;;;;;;1.84;100.00;96671.31;4955615;28;105435;-63
2023/01/02 07:42:39;;;;;;;9.63;7.30;;;;;;;2.02;100.00;96674.31;4954755;28;104386;-63
2023/01/02 07:45:10;;;;;;;11.63;9.30;;;;;;;2.09;100.00;96675.16;4973326;28;102158;-63
2023/01/02 07:47:38;;;;;;;11.37;8.73;;;;;;;2.18;100.00;96681.88;4972635;28;102947;-63
2023/01/02 07:50:06;;;;;;;15.03;8.67;;;;;;;2.66;100.00;96678.34;4954729;28;105588;-63
2023/01/02 07:52:33;;;;;;;14.00;9.17;;;;;;;2.68;100.00;96681.59;4958697;28;101962;-63
2023/01/02 07:55:01;;;;;;;11.10;8.60;;;;;;;2.73;100.00;96687.06;4955028;28;105484;-63
2023/01/02 07:57:30;;;;;;;10.57;8.87;;;;;;;2.60;100.00;96684.34;4954948;28;101868;-63
2023/01/02 07:59:58;;;;;;;10.40;8.60;;;;;;;2.68;100.00;96685.00;4955331;28;104456;-63
2023/01/02 08:02:27;;;;;;;10.80;8.20;;;;;;;2.68;100.00;96681.59;4954536;28;105754;-63
2023/01/02 08:04:54;;;;;;;12.30;8.37;;;;;;;2.93;100.00;96683.53;4954950;28;102070;-63
2023/01/02 08:07:22;;;;;;;10.40;8.50;;;;;;;3.13;100.00;96670.47;4955316;28;105395;-63
2023/01/02 08:09:49;;;;;;;11.20;8.43;;;;;;;2.96;100.00;96677.88;4954636;28;105791;-63
2023/01/02 08:12:17;;;;;;;11.83;8.30;;;;;;;3.38;100.00;96674.19;4958684;28;101879;-63
2023/01/02 08:14:44;;;;;;;10.07;8.93;;;;;;;3.25;100.00;96671.50;4954296;28;105521;-63
2023/01/02 08:17:11;;;;;;;13.13;9.30;;;;;;;3.41;100.00;96671.16;4972695;28;102407;-63
2023/01/02 08:19:41;;;;;;;10.97;9.00;;;;;;;3.56;100.00;96677.06;4954990;28;105517;-63
2023/01/02 08:22:09;;;;;;;11.70;9.70;;;;;;;3.82;100.00;96682.34;4954328;28;104641;-63
2023/01/02 08:24:36;;;;;;;10.30;9.17;;;;;;;3.98;100.00;96689.84;4954527;28;101895;-63
2023/01/02 08:27:04;;;;;;;10.00;7.97;;;;;;;4.09;100.00;96687.41;4955090;28;105300;-63
2023/01/02 08:29:32;;;;;;;9.27;8.17;;;;;;;3.97;100.00;96691.66;4953795;28;105716;-63
2023/01/02 08:32:00;;;;;;;10.60;7.30;;;;;;;4.03;100.00;96688.22;4954811;28;101988;-63
2023/01/02 08:34:28;;;;;;;7.43;6.60;;;;;;;4.19;100.00;96698.34;4957293;28;105539;-63
2023/01/02 08:36:57;;;;;;;9.33;6.53;;;;;;;4.45;100.00;96694.88;4954876;28;101874;-63
2023/01/02 08:39:24;;;;;;;7.80;6.60;;;;;;;4.76;100.00;96708.19;4953549;28;105205;-63
2023/01/02 08:41:52;;;;;;;9.47;6.77;;;;;;;5.04;100.00;96692.91;4953874;28;105552;-63
2023/01/02 08:44:19;;;;;;;8.40;6.80;;;;;;;5.30;100.00;96690.16;4954437;28;101893;-66
2023/01/02 08:46:47;;;;;;;7.73;6.47;;;;;;;5.52;100.00;96687.00;4954712;28;105365;-67
2023/01/02 08:49:13;;;;;;;6.83;6.10;;;;;;;5.66;100.00;96687.72;4954089;28;105516;-62
2023/01/02 08:51:40;;;;;;;8.17;5.90;;;;;;;5.90;100.00;96684.38;4954689;28;101900;-62
2023/01/02 08:54:09;;;;;;;8.43;6.43;;;;;;;5.92;100.00;96683.13;4954619;28;104823;-63
2023/01/02 08:56:37;;;;;;;7.70;6.47;;;;;;;6.12;100.00;96685.63;4957195;28;105424;-72
2023/01/02 08:59:06;;;;;;;6.70;6.00;;;;;;;6.24;100.00;96681.25;4954704;28;105348;-74
2023/01/02 09:01:34;;;;;;;8.20;6.63;;;;;;;6.39;100.00;96689.66;4954048;28;104968;-69
2023/01/02 09:04:06;;;;;;;7.30;6.27;;;;;;;6.54;100.00;96692.78;4973201;28;102457;-64
2023/01/02 09:06:37;;;;;;;8.90;6.10;;;;;;;6.71;100.00;96693.81;4974129;28;105262;-63
2023/01/02 09:09:05;;;;;;;7.80;5.40;;;;;;;6.91;100.00;96695.22;4960409;28;105931;-64
2023/01/02 09:11:36;;;;;;;6.90;5.60;;;;;;;7.11;100.00;96689.72;4954402;28;101893;-63
2023/01/02 09:14:07;;;;;;;7.87;5.80;;;;;;;7.45;100.00;96691.72;4954487;28;105104;-66
2023/01/02 09:16:35;;;;;;;7.13;5.87;;;;;;;7.69;100.00;96691.59;4954513;28;102777;-66
2023/01/02 09:19:04;;;;;;;7.40;5.90;;;;;;;7.90;100.00;96692.97;4957915;28;101892;-66
2023/01/02 09:21:31;;;;;;;6.90;6.10;;;;;;;8.14;100.00;96691.97;4953544;28;105600;-66
2023/01/02 09:24:24;;;;;;;9.20;5.90;;;;;;;8.42;100.00;96689.50;4954466;28;101871;-66
2023/01/02 09:26:53;;;;;;;8.73;6.13;;;;;;;8.58;100.00;96687.00;4954494;28;105238;-66
2023/01/02 09:29:20;;;;;;;8.30;5.73;;;;;;;8.79;100.00;96694.34;4953635;28;105512;-66
2023/01/02 09:31:47;;;;;;;7.47;5.63;;;;;;;8.87;100.00;96693.19;4954338;28;101865;-66
2023/01/02 09:34:14;;;;;;;7.80;5.73;;;;;;;9.10;100.00;96690.53;4971973;28;102562;-66
2023/01/02 09:36:42;;;;;;;7.13;5.37;;;;;;;9.34;100.00;96678.81;4971132;28;102897;-66
2023/01/02 09:39:09;;;;;;;7.43;5.00;;;;;;;9.35;100.00;96675.94;4954326;28;101855;-66
2023/01/02 09:41:40;;;;;;;5.30;4.80;;;;;;;9.62;100.00;96670.84;4956519;28;104943;-65
2023/01/02 09:44:17;;;;;;;6.07;4.80;;;;;;;9.89;100.00;96655.94;4954320;28;101781;-65
2023/01/02 09:46:50;;;;;;;5.10;4.47;;;;;;;10.13;100.00;96658.25;4954040;28;105313;-65
2023/01/02 09:49:21;;;;;;;5.60;4.20;;;;;;;10.37;100.00;96658.94;4953388;28;106020;-65
2023/01/02 09:51:49;;;;;;;4.57;3.37;;;;;;;10.37;100.00;96650.94;4971130;28;102160;-65
2023/01/02 09:54:22;;;;;;;6.37;3.43;;;;;;;10.27;100.00;96651.59;4954110;28;104998;-65
2023/01/02 09:56:58;;;;;;;3.67;3.30;;;;;;;10.27;100.00;96648.94;4953278;28;105775;-65
2023/01/02 09:59:32;;;;;;;4.30;3.67;;;;;;;10.49;100.00;96656.97;4953895;28;101939;-65
2023/01/02 10:02:53;;;;;;;3.40;2.80;;;;;;;10.60;100.00;96648.09;4953497;28;105127;-65
2023/01/02 10:05:41;;;;;;;3.70;3.10;;;;;;;10.81;100.00;96650.00;4956723;28;105653;-65
2023/01/02 10:08:14;;;;;;;4.97;4.43;;;;;;;10.86;100.00;96644.75;4953649;28;105244;-65
2023/01/02 10:10:43;;;;;;;4.40;4.00;;;;;;;10.73;100.00;96645.91;4952851;28;105150;-65
2023/01/02 10:13:23;;;;;;;4.10;3.70;;;;;;;10.65;100.00;96640.19;4953882;28;101886;-65
2023/01/02 10:15:53;;;;;;;3.80;3.50;;;;;;;10.68;100.00;96642.38;4953570;28;105362;-65
2023/01/02 10:18:24;;;;;;;4.60;4.20;;;;;;;10.59;100.00;96641.19;4953255;28;105126;-65
2023/01/02 10:20:56;;;;;;;3.60;3.30;;;;;;;10.58;100.00;96640.38;4953526;28;101957;-65
2023/01/02 10:23:28;;;;;;;4.50;3.73;;;;;;;10.80;100.00;96632.44;4951854;28;102551;-65
2023/01/02 10:25:58;;;;;;;4.30;3.90;;;;;;;10.85;100.00;96635.19;4973863;28;102650;-65
2023/01/02 10:28:34;;;;;;;4.17;3.83;;;;;;;10.99;100.00;96625.75;4953558;28;105222;-65
2023/01/02 10:31:07;;;;;;;4.57;3.87;;;;;;;11.05;100.00;96627.44;4934293;28;104315;-65
2023/01/02 10:33:43;;;;;;;5.87;3.90;;;;;;;11.21;100.00;96630.06;4953423;28;102060;-65
2023/01/02 10:36:20;;;;;;;5.07;3.90;;;;;;;11.30;100.00;96633.06;4953683;28;105073;-65
2023/01/02 10:38:47;;;;;;;3.40;3.10;;;;;;;11.24;100.00;96620.75;4952827;28;105336;-65
2023/01/02 10:41:14;;;;;;;3.97;3.50;;;;;;;11.37;100.00;96623.84;4953080;28;101957;-65
2023/01/02 10:44:00;;;;;;;3.70;3.20;;;;;;;11.41;100.00;96614.31;4971172;28;102387;-65
2023/01/02 10:46:32;;;;;;;3.30;3.00;;;;;;;11.61;100.00;96617.22;4952577;28;105801;-65
2023/01/02 10:48:59;;;;;;;4.60;3.40;;;;;;;11.78;100.00;96619.78;4956597;28;102433;-65
2023/01/02 10:51:27;;;;;;;5.13;3.10;;;;;;;11.91;100.00;96608.72;4952380;28;105218;-65
2023/01/02 10:54:36;;;;;;;3.17;2.87;;;;;;;12.06;100.00;96612.31;4953087;28;102046;-65
2023/01/02 10:57:12;;;;;;;4.87;3.40;;;;;;;12.62;100.00;96605.53;4953201;28;105180;-65
2023/01/02 10:59:43;;;;;;;3.93;3.53;;;;;;;12.70;100.00;96603.16;4952312;28;105473;-65
2023/01/02 11:02:51;;;;;;;2.10;2.00;;;;;;;12.96;100.00;96598.78;4952107;28;102021;-65
2023/01/02 11:05:23;;;;;;;3.00;1.90;;;;;;;13.13;100.00;96588.75;4953078;28;105170;-65
2023/01/02 11:07:52;;;;;;;2.57;1.73;;;;;;;13.19;100.00;96591.16;4952158;28;105233;-66
2023/01/02 11:10:26;;;;;;;1.97;1.63;;;;;;;13.17;100.00;96589.81;4952891;28;102034;-67
2023/01/02 11:13:03;;;;;;;2.53;1.70;;;;;;;13.30;100.00;96592.00;4955650;28;105369;-67
2023/01/02 11:15:33;;;;;;;2.53;2.00;;;;;;;13.48;100.00;96595.00;4952542;28;102128;-67
2023/01/02 11:18:02;;;;;;;2.23;2.07;;;;;;;13.71;100.00;96586.50;4952800;28;105056;-67
2023/01/02 11:20:35;;;;;;;2.30;2.10;;;;;;;13.67;100.00;96597.97;4952191;28;105603;-65
2023/01/02 11:23:25;;;;;;;2.33;2.13;;;;;;;13.49;100.00;96598.47;4952501;28;102040;-67
2023/01/02 11:25:54;;;;;;;1.97;1.60;;;;;;;13.45;100.00;96595.53;4952940;28;105525;-65
2023/01/02 11:28:25;;;;;;;2.47;1.90;;;;;;;13.50;100.00;96600.88;4969510;28;102853;-65
2023/01/02 11:30:55;;;;;;;6.03;2.10;;;;;;;13.63;100.00;96610.28;4952884;28;101816;-65
2023/01/02 11:33:45;;;;;;;3.83;2.50;;;;;;;13.45;100.00;96605.41;4970216;28;102337;-65
2023/01/02 11:36:18;;;;;;;2.83;2.50;;;;;;;13.46;100.00;96601.69;4955349;28;105441;-65
2023/01/02 11:38:46;;;;;;;3.10;2.80;;;;;;;13.49;100.00;96606.47;4952901;28;104811;-65